Dades meteomassalio
Diari Summary for Abril 18, 2018 Units:  Metric    English   Both
« Previous Day
Next Day »
Diari Semanal Mensual Anual Personalitzat
  Maxima: Minima: Mijana:
Temperatura: -17.8 °C -14.7 °C -9.2 °C
Rosada: -17.8 °C -15.8 °C -13.3 °C
Humitat: Humidity % 34 % 66 %
Velocitat del vent: 0 km/h 0 km/h 14.6 km/h
Racha vent: 0 km/h - -
Vent:- - SSE
Pressio: 0 hPa 34740.4 hPa -
Pluja: 7.62 mm    
Historical Graphs
 
 
Tabular Data for Abril 18, 2018
Time Temperature Dew Point Pressure Wind Wind Speed Wind Gust Humidity Rainfall Rate (Hourly) solar Conditions
-17.8 °C -17.8 °C 0 hPa Calm     Humidity % 0 mm SolarRadiationWatts/m^2 W/m2 Conditions
00:01 -12.2 °C -13.4 °C 34774.2 hPa Calm     86 % 0 mm 0.0 W/m2 RA
00:06 -12.6 °C -13.8 °C 34774.2 hPa WSW 9 km/h   86 % 0 mm 0.0 W/m2 CLR
00:11 -12.6 °C -13.8 °C 34774.2 hPa Calm     86 % 0 mm 0.0 W/m2 CLR
00:16 -12.6 °C -13.8 °C 34774.2 hPa Calm     86 % 0 mm 0.0 W/m2 CLR
00:21 -12.6 °C -13.8 °C 34774.2 hPa Calm     86 % 0 mm 0.0 W/m2 CLR
00:26 -12.6 °C -13.8 °C 34784.4 hPa Calm     86 % 0 mm 0.0 W/m2 CLR
00:32 -12.8 °C -14 °C 34784.4 hPa Calm     87 % 0 mm 0.0 W/m2 CLR
00:37 -12.8 °C -14 °C 34784.4 hPa Calm     87 % 0 mm 0.0 W/m2 CLR
00:42 -12.8 °C -14 °C 34784.4 hPa Calm     87 % 0 mm 0.0 W/m2 CLR
00:47 -12.8 °C -13.9 °C 34784.4 hPa Calm     88 % 0 mm 0.0 W/m2 CLR
00:52 -12.8 °C -13.9 °C 34784.4 hPa Calm     88 % 0 mm 0.0 W/m2 CLR
00:57 -12.8 °C -13.9 °C 34784.4 hPa Calm     88 % 0 mm 0.0 W/m2 CLR
01:02 -12.8 °C -13.9 °C 34784.4 hPa Calm     88 % 0 mm 0.0 W/m2 CLR
01:07 -13.2 °C -14.2 °C 34784.4 hPa Calm     88 % 0 mm 0.0 W/m2 CLR
01:12 -12.8 °C -13.9 °C 34784.4 hPa Calm     88 % 0 mm 0.0 W/m2 CLR
01:17 -12.8 °C -13.8 °C 34784.4 hPa Calm     89 % 0 mm 0.0 W/m2 CLR
01:22 -12.8 °C -13.8 °C 34784.4 hPa Calm     89 % 0 mm 0.0 W/m2 CLR
01:27 -12.8 °C -13.8 °C 34784.4 hPa Calm     89 % 0 mm 0.0 W/m2 CLR
01:32 -12.8 °C -13.8 °C 34784.4 hPa Calm     89 % 0 mm 0.0 W/m2 CLR
01:37 -13.2 °C -14 °C 34784.4 hPa Calm     90 % 0 mm 0.0 W/m2 CLR
01:42 -13.2 °C -14.1 °C 34784.4 hPa Calm     89 % 0 mm 0.0 W/m2 CLR
01:47 -13.2 °C -14.1 °C 34784.4 hPa Calm     89 % 0 mm 0.0 W/m2 CLR
01:52 -13.2 °C -14.1 °C 34784.4 hPa Calm     89 % 0 mm 0.0 W/m2 CLR
01:57 -13.2 °C -14.1 °C 34784.4 hPa Calm     89 % 0 mm 0.0 W/m2 CLR
02:02 -13.2 °C -14.1 °C 34797.9 hPa Calm     89 % 0 mm 0.0 W/m2 CLR
02:07 -13.2 °C -14.1 °C 34797.9 hPa Calm     89 % 0 mm 0.0 W/m2 CLR
02:12 -13.2 °C -14 °C 34797.9 hPa Calm     90 % 0 mm 0.0 W/m2 CLR
02:17 -13.2 °C -14 °C 34797.9 hPa Calm     90 % 0 mm 0.0 W/m2 CLR
02:22 -13.2 °C -14 °C 34797.9 hPa Calm     90 % 0 mm 0.0 W/m2 CLR
02:27 -13.2 °C -14 °C 34797.9 hPa Calm     90 % 0 mm 0.0 W/m2 CLR
02:32 -13.2 °C -14 °C 34784.4 hPa Calm     90 % 0 mm 0.0 W/m2 CLR
02:37 -13.2 °C -13.9 °C 34797.9 hPa Calm     91 % 0 mm 0.0 W/m2 CLR
02:42 -13.4 °C -14.2 °C 34797.9 hPa Calm     91 % 0 mm 0.0 W/m2 CLR
02:47 -13.4 °C -14.3 °C 34797.9 hPa Calm     90 % 0 mm 0.0 W/m2 CLR
02:52 -13.4 °C -14.3 °C 34797.9 hPa Calm     90 % 0 mm 0.0 W/m2 CLR
02:57 -13.4 °C -14.3 °C 34784.4 hPa Calm     90 % 0 mm 0.0 W/m2 CLR
03:02 -13.4 °C -14.2 °C 34784.4 hPa Calm     91 % 0 mm 0.0 W/m2 CLR
03:07 -13.4 °C -14.2 °C 34784.4 hPa Calm     91 % 0 mm 0.0 W/m2 CLR
03:12 -13.4 °C -14.2 °C 34784.4 hPa Calm     91 % 0 mm 0.0 W/m2 CLR
03:17 -13.4 °C -14.2 °C 34784.4 hPa Calm     91 % 0 mm 0.0 W/m2 CLR
03:22 -13.4 °C -14.2 °C 34784.4 hPa Calm     91 % 0 mm 0.0 W/m2 CLR
03:27 -13.4 °C -14.2 °C 34784.4 hPa Calm     91 % 0 mm 0.0 W/m2 CLR
03:32 -13.4 °C -14.2 °C 34784.4 hPa Calm     91 % 0 mm 0.0 W/m2 CLR
03:37 -13.8 °C -14.6 °C 34784.4 hPa Calm     91 % 0 mm 0.0 W/m2 CLR
03:42 -13.8 °C -14.6 °C 34784.4 hPa Calm     91 % 0 mm 0.0 W/m2 CLR
03:47 -13.8 °C -14.6 °C 34784.4 hPa Calm     91 % 0 mm 0.0 W/m2 CLR
03:52 -13.4 °C -14.1 °C 34784.4 hPa Calm     92 % 0 mm 0.0 W/m2 CLR
03:57 -13.4 °C -14.2 °C 34784.4 hPa Calm     91 % 0 mm 0.0 W/m2 CLR
04:02 -13.4 °C -14.2 °C 34784.4 hPa Calm     91 % 0 mm 0.0 W/m2 CLR
04:07 -13.8 °C -14.6 °C 34784.4 hPa Calm     91 % 0 mm 0.0 W/m2 CLR
04:12 -13.8 °C -14.4 °C 34784.4 hPa Calm     92 % 0 mm 0.0 W/m2 CLR
04:17 -13.8 °C -14.4 °C 34784.4 hPa Calm     92 % 0 mm 0.0 W/m2 CLR
04:22 -13.8 °C -14.6 °C 34784.4 hPa Calm     91 % 0 mm 0.0 W/m2 CLR
04:27 -13.8 °C -14.6 °C 34784.4 hPa Calm     91 % 0 mm 0.0 W/m2 CLR
04:32 -13.8 °C -14.6 °C 34784.4 hPa Calm     91 % 0 mm 0.0 W/m2 CLR
04:37 -13.8 °C -14.6 °C 34784.4 hPa Calm     91 % 0 mm 0.0 W/m2 CLR
04:42 -13.8 °C -14.4 °C 34784.4 hPa Calm     92 % 0 mm 0.0 W/m2 CLR
04:47 -13.8 °C -14.4 °C 34784.4 hPa Calm     92 % 0 mm 0.0 W/m2 CLR
04:52 -13.8 °C -14.4 °C 34784.4 hPa Calm     92 % 0 mm 0.0 W/m2 CLR
04:57 -13.8 °C -14.4 °C 34784.4 hPa Calm     92 % 0 mm 0.0 W/m2 CLR
05:02 -13.8 °C -14.4 °C 34784.4 hPa Calm     92 % 0 mm 0.0 W/m2 CLR
05:07 -13.8 °C -14.4 °C 34784.4 hPa Calm     92 % 0 mm 0.0 W/m2 CLR
05:12 -14.1 °C -14.8 °C 34784.4 hPa Calm     92 % 0 mm 0.0 W/m2 CLR
05:17 -14.1 °C -14.8 °C 34784.4 hPa Calm     92 % 0 mm 0.0 W/m2 CLR
05:22 -14.1 °C -14.8 °C 34784.4 hPa Calm     92 % 0 mm 0.0 W/m2 CLR
05:27 -14.1 °C -14.8 °C 34784.4 hPa Calm     92 % 0 mm 0.0 W/m2 CLR
05:32 -14.4 °C -15.1 °C 34784.4 hPa Calm     92 % 0 mm 0.0 W/m2 CLR
05:37 -14.4 °C -15.1 °C 34784.4 hPa Calm     92 % 0 mm 0.0 W/m2 CLR
05:42 -14.4 °C -15.1 °C 34784.4 hPa Calm     92 % 0 mm 0.0 W/m2 CLR
05:47 -14.1 °C -14.8 °C 34784.4 hPa Calm     92 % 0 mm 0.0 W/m2 CLR
05:52 -14.1 °C -14.8 °C 34784.4 hPa Calm     92 % 0 mm 0.0 W/m2 CLR
05:57 -14.4 °C -15.1 °C 34784.4 hPa Calm     92 % 0 mm 0.0 W/m2 CLR
06:02 -14.4 °C -15.1 °C 34784.4 hPa Calm     92 % 0 mm 0.0 W/m2 CLR
06:07 -14.4 °C -15.1 °C 34784.4 hPa Calm     92 % 0 mm 0.0 W/m2 CLR
06:12 -14.4 °C -15.1 °C 34784.4 hPa Calm     92 % 0 mm 0.0 W/m2 CLR
06:17 -14.4 °C -15.1 °C 34784.4 hPa Calm     92 % 0 mm 0.0 W/m2 CLR
06:22 -14.4 °C -15.1 °C 34784.4 hPa Calm     92 % 0 mm 0.0 W/m2 CLR
06:27 -14.7 °C -15.4 °C 34784.4 hPa Calm     92 % 0 mm 0.0 W/m2 CLR
06:32 -14.4 °C -15.1 °C 34784.4 hPa Calm     92 % 0 mm 0.0 W/m2 CLR
06:37 -14.4 °C -15.1 °C 34784.4 hPa Calm     92 % 0 mm 0.0 W/m2 CLR
06:42 -14.4 °C -15.1 °C 34797.9 hPa Calm     92 % 0 mm 0.0 W/m2 CLR
06:47 -14.4 °C -15.1 °C 34797.9 hPa Calm     92 % 0 mm 0.0 W/m2 CLR
06:52 -14.7 °C -15.4 °C 34784.4 hPa Calm     92 % 0 mm 0.0 W/m2 CLR
06:57 -14.7 °C -15.4 °C 34784.4 hPa Calm     92 % 0 mm 0.0 W/m2 CLR
07:02 -14.4 °C -15.1 °C 34797.9 hPa Calm     92 % 0 mm 0.0 W/m2 CLR
07:07 -14.4 °C -15.1 °C 34797.9 hPa Calm     92 % 0 mm 0.0 W/m2 OVC
07:12 -14.7 °C -15.4 °C 34797.9 hPa Calm     92 % 0 mm 0.0 W/m2 OVC
07:17 -14.4 °C -15.1 °C 34797.9 hPa Calm     92 % 0 mm 5.0 W/m2 OVC
07:22 -14.7 °C -15.4 °C 34797.9 hPa Calm     92 % 0 mm 7.0 W/m2 BKN
07:27 -14.7 °C -15.4 °C 34797.9 hPa Calm     92 % 0 mm 11.0 W/m2 BKN
07:33 -14.7 °C -15.4 °C 34797.9 hPa Calm     92 % 0 mm 12.0 W/m2 BKN
07:38 -14.4 °C -15.1 °C 34797.9 hPa Calm     92 % 0 mm 16.0 W/m2 BKN
07:43 -14.4 °C -14.9 °C 34797.9 hPa Calm     93 % 0 mm 21.0 W/m2 BKN
07:48 -14.4 °C -14.9 °C 34797.9 hPa Calm     93 % 0 mm 28.0 W/m2 BKN
07:53 -14.4 °C -15.1 °C 34797.9 hPa Calm     92 % 0 mm 40.0 W/m2 BKN
07:58 -14.4 °C -14.9 °C 34797.9 hPa Calm     93 % 0 mm 44.0 W/m2 BKN
08:03 -14.1 °C -14.7 °C 34808.1 hPa Calm     93 % 0 mm 63.0 W/m2 SCT
08:08 -14.1 °C -14.7 °C 34808.1 hPa Calm     93 % 0 mm 56.0 W/m2 SCT
08:13 -14.1 °C -14.8 °C 34808.1 hPa Calm     92 % 0 mm 77.0 W/m2 FEW
08:18 -13.8 °C -14.3 °C 34808.1 hPa Calm     93 % 0 mm 109.0 W/m2 FEW
08:23 -13.4 °C -14.1 °C 34808.1 hPa Calm     93 % 0 mm 128.0 W/m2 CLR
08:28 -13.4 °C -14.1 °C 34808.1 hPa Calm     93 % 0 mm 146.0 W/m2 CLR
08:33 -13.4 °C -14.1 °C 34808.1 hPa Calm     92 % 0 mm 162.0 W/m2 CLR
08:38 -13.2 °C -13.8 °C 34808.1 hPa Calm     92 % 0 mm 167.0 W/m2 CLR
08:43 -12.8 °C -13.5 °C 34808.1 hPa Calm     92 % 0 mm 181.0 W/m2 CLR
08:48 -12.8 °C -13.5 °C 34818.2 hPa Calm     92 % 0 mm 193.0 W/m2 CLR
08:53 -12.6 °C -13.2 °C 34818.2 hPa Calm     92 % 0 mm 207.0 W/m2 CLR
08:58 -12.2 °C -13 °C 34808.1 hPa Calm     91 % 0 mm 225.0 W/m2 CLR
09:03 -12.2 °C -13.1 °C 34808.1 hPa Calm     90 % 0 mm 109.0 W/m2 CLR
09:08 -11.9 °C -12.9 °C 34808.1 hPa Calm     89 % 7.62 mm 144.0 W/m2 RA
09:13 -11.6 °C -12.7 °C 34818.2 hPa Calm     87 % 7.62 mm 297.0 W/m2 CLR
09:18 -11 °C -12.2 °C 34818.2 hPa Calm     87 % 7.62 mm 309.0 W/m2 CLR
09:23 -10.7 °C -12.1 °C 34818.2 hPa Calm     85 % 7.62 mm 339.0 W/m2 CLR
09:28 -10.7 °C -12.1 °C 34818.2 hPa Calm     84 % 7.62 mm 366.0 W/m2 CLR
09:33 -10.4 °C -11.9 °C 34818.2 hPa Calm     83 % 7.62 mm 388.0 W/m2 CLR
09:38 -10.1 °C -11.7 °C 34818.2 hPa Calm     82 % 7.62 mm 404.0 W/m2 CLR
09:44 -10.1 °C -11.9 °C 34818.2 hPa Calm     80 % 7.62 mm 431.0 W/m2 CLR
09:45 -10.1 °C -11.8 °C 34818.2 hPa Calm     81 % 7.62 mm 431.0 W/m2 CLR
09:50 -9.4 °C -11.4 °C 34818.2 hPa Calm     79 % 7.62 mm 448.0 W/m2 CLR
09:55 -9.4 °C -11.6 °C 34818.2 hPa Calm     78 % 7.62 mm 468.0 W/m2 CLR
10:00 -9.4 °C -11.6 °C 34818.2 hPa Calm     78 % 7.62 mm 489.0 W/m2 CLR
10:05 -9.1 °C -11.6 °C 34818.2 hPa Calm     75 % 0 mm 487.0 W/m2 CLR
10:10 -8.8 °C -11.4 °C 34818.2 hPa Calm     74 % 0 mm 446.0 W/m2 CLR
10:15 -8.8 °C -11.4 °C 34818.2 hPa Calm     74 % 0 mm 429.0 W/m2 CLR
10:20 -8.8 °C -11.4 °C 34818.2 hPa Calm     74 % 0 mm 482.0 W/m2 CLR
10:25 -8.8 °C -11.6 °C 34818.2 hPa Calm     72 % 0 mm 497.0 W/m2 CLR
10:30 -8.8 °C -11.9 °C 34818.2 hPa Calm     70 % 0 mm 564.0 W/m2 CLR
10:35 -8.5 °C -11.9 °C 34818.2 hPa Calm     67 % 0 mm 561.0 W/m2 CLR
10:40 -8.2 °C -11.5 °C 34818.2 hPa Calm     68 % 0 mm 577.0 W/m2 CLR
10:45 -7.9 °C -11.3 °C 34818.2 hPa Calm     67 % 0 mm 587.0 W/m2 CLR
10:50 -7.9 °C -11.5 °C 34818.2 hPa Calm     66 % 0 mm 606.0 W/m2 CLR
10:55 -7.6 °C -11.4 °C 34818.2 hPa Calm     64 % 0 mm 628.0 W/m2 CLR
11:00 -7.3 °C -11.2 °C 34818.2 hPa Calm     64 % 0 mm 617.0 W/m2 CLR
11:05 -7.3 °C -11.3 °C 34818.2 hPa Calm     63 % 0 mm 615.0 W/m2 CLR
11:10 -7 °C -11.4 °C 34818.2 hPa Calm     60 % 0 mm 633.0 W/m2 CLR
11:15 -7 °C -11.2 °C 34808.1 hPa Calm     62 % 0 mm 656.0 W/m2 CLR
11:20 -7 °C -11.3 °C 34808.1 hPa Calm     61 % 0 mm 675.0 W/m2 CLR
11:25 -6.7 °C -11 °C 34808.1 hPa Calm     61 % 0 mm 710.0 W/m2 CLR
11:30 -6.3 °C -10.6 °C 34808.1 hPa Calm     62 % 0 mm 714.0 W/m2 CLR
11:35 -6.3 °C -10.8 °C 34808.1 hPa Calm     60 % 0 mm 738.0 W/m2 CLR
11:40 -6.3 °C -10.6 °C 34818.2 hPa Calm     62 % 0 mm 752.0 W/m2 CLR
11:45 -6.1 °C -10.8 °C 34808.1 hPa ENE 9 km/h 9 km/h 58 % 0 mm 737.0 W/m2 CLR
11:50 -6.1 °C -10.7 °C 34808.1 hPa East 10.3 km/h 10.3 km/h 59 % 0 mm 735.0 W/m2 CLR
11:55 -6.1 °C -10.5 °C 34808.1 hPa SE 3.1 km/h 3.1 km/h 60 % 0 mm 731.0 W/m2 CLR
12:00 -5.7 °C -10.4 °C 34808.1 hPa East 11.9 km/h 11.9 km/h 59 % 0 mm 770.0 W/m2 CLR
12:05 -5.7 °C -10.7 °C 34808.1 hPa ENE 15 km/h 15 km/h 57 % 0 mm 798.0 W/m2 CLR
12:10 -5.7 °C -10.8 °C 34808.1 hPa ENE 20.9 km/h 20.9 km/h 56 % 0 mm 795.0 W/m2 CLR
12:15 -5.4 °C -10.4 °C 34808.1 hPa East 6 km/h 6 km/h 57 % 0 mm 773.0 W/m2 CLR
12:20 -5.4 °C -10.9 °C 34808.1 hPa ESE 26.9 km/h 26.9 km/h 54 % 0 mm 819.0 W/m2 CLR
12:25 -5.1 °C -10.7 °C 34797.9 hPa East 33.6 km/h 33.6 km/h 53 % 0 mm 831.0 W/m2 CLR
12:30 -5.1 °C -10.7 °C 34797.9 hPa East 26.9 km/h 26.9 km/h 53 % 0 mm 835.0 W/m2 CLR
12:35 -5.1 °C -10.7 °C 34797.9 hPa SE 9 km/h 10.3 km/h 53 % 0 mm 837.0 W/m2 CLR
12:40 -5.1 °C -11.2 °C 34797.9 hPa ESE 15 km/h 15 km/h 50 % 0 mm 844.0 W/m2 CLR
12:45 -5.1 °C -11.2 °C 34797.9 hPa ESE 29.8 km/h 29.8 km/h 50 % 0 mm 856.0 W/m2 CLR
12:50 -4.8 °C -10.6 °C 34784.4 hPa SE 23.3 km/h 23.3 km/h 52 % 0 mm 823.0 W/m2 CLR
12:55 -4.5 °C -11.2 °C 34784.4 hPa SSE 9 km/h 9 km/h 47 % 0 mm 863.0 W/m2 CLR
13:00 -4.8 °C -11.4 °C 34784.4 hPa ESE 26.9 km/h 26.9 km/h 47 % 0 mm 812.0 W/m2 CLR
13:05 -4.5 °C -11.3 °C 34784.4 hPa SE 9 km/h 9 km/h 46 % 0 mm 860.0 W/m2 CLR
13:10 -4.5 °C -11.6 °C 34784.4 hPa South 23.8 km/h 23.8 km/h 45 % 0 mm 860.0 W/m2 CLR
13:15 -4.5 °C -11.6 °C 34784.4 hPa SE 26.9 km/h 26.9 km/h 45 % 0 mm 865.0 W/m2 CLR
13:20 -4.5 °C -11.3 °C 34774.2 hPa SE 29.8 km/h 29.8 km/h 46 % 0 mm 858.0 W/m2 CLR
13:25 -4.5 °C -11.7 °C 34774.2 hPa SSE 26.9 km/h 26.9 km/h 44 % 0 mm 875.0 W/m2 CLR
13:30 -4.2 °C -11.3 °C 34774.2 hPa SE 15 km/h 15 km/h 45 % 0 mm 886.0 W/m2 CLR
13:35 -4.2 °C -11.4 °C 34774.2 hPa SE 29.8 km/h 29.8 km/h 44 % 0 mm 886.0 W/m2 CLR
13:40 -4.2 °C -11.1 °C 34774.2 hPa SSE 31.1 km/h 31.1 km/h 46 % 0 mm 791.0 W/m2 CLR
13:45 -3.9 °C -11.8 °C 34774.2 hPa South 47.6 km/h 47.6 km/h 41 % 0 mm 879.0 W/m2 CLR
13:50 -3.9 °C -11.8 °C 34774.2 hPa SSE 32.8 km/h 32.8 km/h 41 % 0 mm 891.0 W/m2 CLR
13:56 -4.2 °C -12.1 °C 34760.7 hPa SE 35.7 km/h 35.7 km/h 41 % 0 mm 888.0 W/m2 CLR
14:01 -4.2 °C -12.3 °C 34774.2 hPa SSE 50.7 km/h 50.7 km/h 40 % 0 mm 884.0 W/m2 CLR
14:06 -4.2 °C -12.1 °C 34760.7 hPa SE 41.7 km/h 41.7 km/h 41 % 0 mm 888.0 W/m2 CLR
14:11 -4.2 °C -12.3 °C 34760.7 hPa SSE 32.8 km/h 32.8 km/h 40 % 0 mm 888.0 W/m2 CLR
14:15 -3.9 °C -12.2 °C 34760.7 hPa SSE 44.7 km/h 44.7 km/h 39 % 0 mm 893.0 W/m2 CLR
14:21 -3.9 °C -12.4 °C 34760.7 hPa SE 32.8 km/h 32.8 km/h 38 % 0 mm 884.0 W/m2 CLR
14:26 -3.9 °C -12.6 °C 34760.7 hPa South 38.8 km/h 38.8 km/h 37 % 0 mm 874.0 W/m2 CLR
14:31 -3.9 °C -12.8 °C 34760.7 hPa SSE 41.7 km/h 41.7 km/h 36 % 0 mm 879.0 W/m2 CLR
14:36 -3.9 °C -13.3 °C 34760.7 hPa South 50.7 km/h 50.7 km/h 34 % 0 mm 888.0 W/m2 CLR
14:41 -3.9 °C -12.6 °C 34760.7 hPa SSE 35.7 km/h 35.7 km/h 37 % 0 mm 882.0 W/m2 CLR
14:46 -3.9 °C -12.8 °C 34760.7 hPa SSE 46.7 km/h 46.7 km/h 36 % 0 mm 874.0 W/m2 CLR
14:51 -3.9 °C -12.4 °C 34760.7 hPa SSE 38.8 km/h 38.8 km/h 38 % 0 mm 872.0 W/m2 CLR
14:56 -3.9 °C -12.6 °C 34760.7 hPa South 38.8 km/h 38.8 km/h 37 % 0 mm 868.0 W/m2 CLR
15:01 -3.9 °C -12.6 °C 34760.7 hPa SE 44.7 km/h 44.7 km/h 37 % 0 mm 863.0 W/m2 CLR
15:06 -3.9 °C -12.8 °C 34750.5 hPa South 44.7 km/h 44.7 km/h 36 % 0 mm 854.0 W/m2 CLR
15:11 -3.9 °C -12.4 °C 34750.5 hPa SSW 38.8 km/h 38.8 km/h 38 % 0 mm 856.0 W/m2 CLR
15:16 -3.9 °C -12.4 °C 34750.5 hPa South 32.8 km/h 32.8 km/h 38 % 0 mm 840.0 W/m2 CLR
15:21 -3.6 °C -12.3 °C 34750.5 hPa South 53.6 km/h 53.6 km/h 37 % 0 mm 838.0 W/m2 CLR
15:26 -3.6 °C -12.3 °C 34750.5 hPa South 44.7 km/h 44.7 km/h 37 % 0 mm 835.0 W/m2 CLR
15:31 -3.9 °C -12.6 °C 34750.5 hPa SSE 47.6 km/h 47.6 km/h 37 % 0 mm 824.0 W/m2 CLR
15:36 -3.9 °C -12.6 °C 34750.5 hPa SSE 47.6 km/h 47.6 km/h 37 % 0 mm 817.0 W/m2 CLR
15:41 -3.9 °C -12.6 °C 34750.5 hPa SSE 50.7 km/h 50.7 km/h 37 % 0 mm 810.0 W/m2 CLR
15:46 -3.9 °C -12.6 °C 34750.5 hPa South 38.8 km/h 38.8 km/h 37 % 0 mm 803.0 W/m2 CLR
15:51 -3.9 °C -12.4 °C 34750.5 hPa South 32.8 km/h 32.8 km/h 38 % 0 mm 789.0 W/m2 CLR
15:56 -3.9 °C -12.6 °C 34740.4 hPa SSE 50.7 km/h 50.7 km/h 37 % 0 mm 788.0 W/m2 CLR
16:01 -3.9 °C -12.6 °C 34740.4 hPa SE 50.7 km/h 50.7 km/h 37 % 0 mm 775.0 W/m2 CLR
16:06 -3.9 °C -12.4 °C 34740.4 hPa SSE 47.6 km/h 47.6 km/h 38 % 0 mm 763.0 W/m2 CLR
16:11 -4.2 °C -12.4 °C 34740.4 hPa South 41.4 km/h 41.4 km/h 39 % 0 mm 752.0 W/m2 CLR
16:16 -3.9 °C -12 °C 34740.4 hPa South 46.7 km/h 46.7 km/h 40 % 0 mm 742.0 W/m2 CLR
16:21 -3.9 °C -12 °C 34740.4 hPa South 32.8 km/h 32.8 km/h 40 % 0 mm 726.0 W/m2 CLR
16:26 -3.9 °C -12.4 °C 34740.4 hPa SE 50.7 km/h 50.7 km/h 38 % 0 mm 721.0 W/m2 CLR
16:32 -4.2 °C -12.9 °C 34740.4 hPa SSE 50.7 km/h 50.7 km/h 37 % 0 mm 708.0 W/m2 CLR
16:37 -4.2 °C -12.4 °C 34740.4 hPa South 38.8 km/h 38.8 km/h 39 % 0 mm 701.0 W/m2 CLR
16:43 -4.2 °C -12.7 °C 34740.4 hPa SSW 59.5 km/h 59.5 km/h 38 % 0 mm 689.0 W/m2 CLR
16:48 -4.2 °C -12.7 °C 34740.4 hPa SSE 41.7 km/h 41.7 km/h 38 % 0 mm 675.0 W/m2 CLR
16:53 -4.2 °C -12.3 °C 34740.4 hPa SSE 44.1 km/h 44.1 km/h 40 % 0 mm 652.0 W/m2 CLR
16:58 -4.2 °C -12.4 °C 34740.4 hPa South 44.7 km/h 44.7 km/h 39 % 0 mm 633.0 W/m2 CLR
17:03 -4.2 °C -12.4 °C 34740.4 hPa SE 41.4 km/h 41.4 km/h 39 % 0 mm 633.0 W/m2 CLR
17:08 -4.2 °C -12.4 °C 34740.4 hPa SSE 41.7 km/h 41.7 km/h 39 % 0 mm 619.0 W/m2 CLR
17:13 -4.5 °C -12.9 °C 34740.4 hPa SSE 35.7 km/h 35.7 km/h 38 % 0 mm 598.0 W/m2 CLR
17:18 -4.2 °C -12.4 °C 34750.5 hPa SSE 44.1 km/h 44.1 km/h 39 % 0 mm 591.0 W/m2 CLR
17:23 -4.2 °C -12.4 °C 34740.4 hPa SSE 44.1 km/h 44.1 km/h 39 % 0 mm 561.0 W/m2 CLR
17:28 -4.2 °C -12.4 °C 34750.5 hPa SSE 50.7 km/h 50.7 km/h 39 % 0 mm 564.0 W/m2 CLR
17:33 -4.2 °C -12.4 °C 34750.5 hPa South 47.6 km/h 47.6 km/h 39 % 0 mm 552.0 W/m2 CLR
17:38 -4.2 °C -12.7 °C 34740.4 hPa SSE 50.7 km/h 50.7 km/h 38 % 0 mm 531.0 W/m2 CLR
17:43 -4.5 °C -12.9 °C 34750.5 hPa South 38.8 km/h 38.8 km/h 38 % 0 mm 519.0 W/m2 CLR
17:48 -4.5 °C -12.7 °C 34740.4 hPa South 26.9 km/h 26.9 km/h 39 % 0 mm 499.0 W/m2 CLR
17:53 -4.2 °C -12.7 °C 34750.5 hPa South 35.7 km/h 35.7 km/h 38 % 0 mm 496.0 W/m2 CLR
17:58 -4.2 °C -12.3 °C 34740.4 hPa SSE 33.6 km/h 33.6 km/h 40 % 0 mm 459.0 W/m2 CLR
18:04 -4.5 °C -12.9 °C 34740.4 hPa SSE 29.8 km/h 29.8 km/h 38 % 0 mm 432.0 W/m2 CLR
18:09 -4.2 °C -12.4 °C 34740.4 hPa SSE 32.8 km/h 32.8 km/h 39 % 0 mm 422.0 W/m2 CLR
18:14 -4.5 °C -12.6 °C 34740.4 hPa South 29.8 km/h 29.8 km/h 40 % 0 mm 422.0 W/m2 CLR
18:19 -4.5 °C -12.6 °C 34740.4 hPa South 29.8 km/h 29.8 km/h 40 % 0 mm 408.0 W/m2 CLR
18:24 -4.5 °C -12.7 °C 34750.5 hPa South 38.8 km/h 38.8 km/h 39 % 0 mm 387.0 W/m2 CLR
18:29 -4.8 °C -13 °C 34740.4 hPa South 41.7 km/h 41.7 km/h 39 % 0 mm 371.0 W/m2 CLR
18:34 -4.8 °C -13 °C 34740.4 hPa South 44.7 km/h 44.7 km/h 39 % 0 mm 353.0 W/m2 CLR
18:39 -4.8 °C -13 °C 34740.4 hPa SSE 38.8 km/h 38.8 km/h 39 % 0 mm 339.0 W/m2 CLR
18:44 -4.8 °C -13 °C 34750.5 hPa SSE 38.8 km/h 38.8 km/h 39 % 0 mm 315.0 W/m2 CLR
18:49 -4.8 °C -13 °C 34740.4 hPa South 44.7 km/h 44.7 km/h 39 % 0 mm 299.0 W/m2 CLR
18:54 -5.1 °C -13.1 °C 34740.4 hPa SSE 29.8 km/h 29.8 km/h 40 % 0 mm 283.0 W/m2 CLR
18:59 -5.1 °C -13.1 °C 34740.4 hPa SSE 32.8 km/h 32.8 km/h 40 % 0 mm 269.0 W/m2 CLR
19:04 -5.1 °C -13.1 °C 34740.4 hPa SSE 32.8 km/h 32.8 km/h 40 % 0 mm 251.0 W/m2 CLR
19:09 -5.1 °C -12.9 °C 34740.4 hPa SSE 23.8 km/h 23.8 km/h 41 % 0 mm 229.0 W/m2 CLR
19:14 -5.4 °C -13.2 °C 34740.4 hPa SSE 29.8 km/h 29.8 km/h 41 % 0 mm 211.0 W/m2 CLR
19:19 -5.4 °C -12.9 °C 34740.4 hPa SSE 29.8 km/h 29.8 km/h 42 % 0 mm 193.0 W/m2 CLR
19:24 -5.4 °C -12.9 °C 34750.5 hPa SE 26.9 km/h 26.9 km/h 42 % 0 mm 174.0 W/m2 CLR
19:29 -5.4 °C -12.9 °C 34750.5 hPa SSE 20.9 km/h 20.9 km/h 42 % 0 mm 151.0 W/m2 CLR
19:34 -5.7 °C -13 °C 34740.4 hPa SSE 26.9 km/h 26.9 km/h 43 % 0 mm 135.0 W/m2 CLR
19:39 -5.7 °C -13 °C 34750.5 hPa SSE 29.8 km/h 29.8 km/h 43 % 0 mm 118.0 W/m2 CLR
19:44 -5.7 °C -13 °C 34750.5 hPa SSE 29.8 km/h 29.8 km/h 43 % 0 mm 104.0 W/m2 OVC
19:49 -5.7 °C -13 °C 34750.5 hPa SSE 35.7 km/h 35.7 km/h 43 % 0 mm 86.0 W/m2 OVC
19:54 -6.1 °C -13.3 °C 34750.5 hPa South 35.7 km/h 35.7 km/h 43 % 0 mm 74.0 W/m2 OVC
19:59 -6.1 °C -12.9 °C 34750.5 hPa South 23.8 km/h 23.8 km/h 45 % 0 mm 54.0 W/m2 OVC
20:04 -6.3 °C -13.2 °C 34750.5 hPa SE 29.8 km/h 29.8 km/h 45 % 0 mm 46.0 W/m2 OVC
20:09 -6.3 °C -13 °C 34750.5 hPa South 29.8 km/h 29.8 km/h 46 % 0 mm 35.0 W/m2 OVC
20:14 -6.7 °C -13.3 °C 34760.7 hPa SSE 26.9 km/h 26.9 km/h 46 % 0 mm 26.0 W/m2 OVC
20:19 -6.7 °C -13.2 °C 34760.7 hPa South 23.8 km/h 23.8 km/h 47 % 0 mm 21.0 W/m2 OVC
20:24 -7 °C -13.4 °C 34760.7 hPa SSE 18.2 km/h 18.2 km/h 47 % 0 mm 16.0 W/m2 OVC
20:29 -7 °C -13.4 °C 34760.7 hPa SSE 20.9 km/h 20.9 km/h 47 % 0 mm 12.0 W/m2 OVC
20:34 -7.3 °C -13.6 °C 34760.7 hPa South 20.9 km/h 20.9 km/h 48 % 0 mm 7.0 W/m2 OVC
20:39 -7.6 °C -13.8 °C 34760.7 hPa SSE 23.8 km/h 23.8 km/h 48 % 0 mm 5.0 W/m2 OVC
20:44 -7.6 °C -13.7 °C 34760.7 hPa South 20.9 km/h 20.9 km/h 49 % 0 mm 0.0 W/m2 OVC
20:49 -7.9 °C -13.9 °C 34760.7 hPa South 17.9 km/h 17.9 km/h 49 % 0 mm 0.0 W/m2 OVC
20:54 -7.9 °C -13.9 °C 34760.7 hPa South 23.8 km/h 23.8 km/h 49 % 0 mm 0.0 W/m2 CLR
20:59 -8.2 °C -14.1 °C 34760.7 hPa SSW 17.9 km/h 17.9 km/h 50 % 0 mm 0.0 W/m2 CLR
21:04 -8.5 °C -14.3 °C 34750.5 hPa SSW 17.9 km/h 17.9 km/h 50 % 0 mm 0.0 W/m2 CLR
21:09 -8.5 °C -14.2 °C 34750.5 hPa SSW 18.2 km/h 18.2 km/h 51 % 0 mm 0.0 W/m2 CLR
21:14 -8.5 °C -14.2 °C 34750.5 hPa SSW 17.9 km/h 17.9 km/h 51 % 0 mm 0.0 W/m2 CLR
21:19 -8.5 °C -14 °C 34760.7 hPa SSW 23.3 km/h 23.3 km/h 52 % 0 mm 0.0 W/m2 CLR
21:24 -8.5 °C -14 °C 34760.7 hPa SSW 26.9 km/h 26.9 km/h 52 % 0 mm 0.0 W/m2 CLR
21:29 -8.2 °C -13.6 °C 34750.5 hPa SSW 20.9 km/h 20.9 km/h 53 % 0 mm 0.0 W/m2 CLR
21:34 -8.2 °C -13.6 °C 34760.7 hPa South 26.9 km/h 26.9 km/h 53 % 0 mm 0.0 W/m2 CLR
21:39 -8.5 °C -14 °C 34760.7 hPa SSW 29.8 km/h 29.8 km/h 52 % 0 mm 0.0 W/m2 CLR
21:44 -8.5 °C -13.8 °C 34760.7 hPa SSW 23.8 km/h 23.8 km/h 53 % 0 mm 0.0 W/m2 CLR
21:49 -8.5 °C -13.7 °C 34774.2 hPa SSW 18.2 km/h 18.2 km/h 54 % 0 mm 0.0 W/m2 CLR
21:54 -8.5 °C -13.7 °C 34774.2 hPa SSW 23.8 km/h 23.8 km/h 54 % 0 mm 0.0 W/m2 CLR
21:59 -8.5 °C -13.7 °C 34774.2 hPa SSW 23.3 km/h 23.3 km/h 54 % 0 mm 0.0 W/m2 CLR
22:04 -8.5 °C -13.7 °C 34774.2 hPa SSW 26.9 km/h 26.9 km/h 54 % 0 mm 0.0 W/m2 CLR
22:09 -8.5 °C -13.7 °C 34774.2 hPa SSW 20.9 km/h 20.9 km/h 54 % 0 mm 0.0 W/m2 CLR
22:14 -8.5 °C -13.7 °C 34774.2 hPa SW 20.9 km/h 20.9 km/h 54 % 0 mm 0.0 W/m2 CLR
22:19 -8.5 °C -13.7 °C 34774.2 hPa SSW 20.9 km/h 20.9 km/h 54 % 0 mm 0.0 W/m2 CLR
22:24 -8.5 °C -13.6 °C 34774.2 hPa SSW 20.9 km/h 20.9 km/h 55 % 0 mm 0.0 W/m2 CLR
22:29 -8.5 °C -13.7 °C 34774.2 hPa SSW 20.9 km/h 20.9 km/h 54 % 0 mm 0.0 W/m2 CLR
22:34 -8.8 °C -14 °C 34784.4 hPa South 26.9 km/h 26.9 km/h 54 % 0 mm 0.0 W/m2 CLR
22:39 -8.8 °C -14.2 °C 34784.4 hPa South 20.9 km/h 20.9 km/h 53 % 0 mm 0.0 W/m2 CLR
22:44 -9.4 °C -14.6 °C 34784.4 hPa South 23.8 km/h 23.8 km/h 54 % 0 mm 0.0 W/m2 CLR
22:49 -9.4 °C -14.6 °C 34784.4 hPa South 15 km/h 15 km/h 54 % 0 mm 0.0 W/m2 CLR
22:54 -10.1 °C -15 °C 34784.4 hPa South 10.3 km/h 10.3 km/h 55 % 0 mm 0.0 W/m2 CLR
22:59 -10.1 °C -14.9 °C 34784.4 hPa Calm     56 % 0 mm 0.0 W/m2 CLR
23:04 -10.7 °C -15.4 °C 34784.4 hPa Calm     56 % 0 mm 0.0 W/m2 CLR
23:09 -10.7 °C -15.3 °C 34797.9 hPa Calm     57 % 0 mm 0.0 W/m2 CLR
23:14 -11 °C -15.3 °C 34797.9 hPa Calm     59 % 0 mm 0.0 W/m2 CLR
23:19 -11.3 °C -15.4 °C 34797.9 hPa Calm     60 % 0 mm 0.0 W/m2 CLR
23:24 -11.6 °C -15.6 °C 34797.9 hPa Calm     61 % 0 mm 0.0 W/m2 CLR
23:30 -11.6 °C -15.6 °C 34797.9 hPa Calm     61 % 0 mm 0.0 W/m2 CLR
23:35 -11.9 °C -15.8 °C 34797.9 hPa Calm     62 % 0 mm 0.0 W/m2 CLR
23:40 -11.9 °C -15.7 °C 34797.9 hPa Calm     63 % 0 mm 0.0 W/m2 CLR
23:45 -11.9 °C -15.7 °C 34797.9 hPa Calm     63 % 0 mm 0.0 W/m2 CLR
23:50 -12.2 °C -15.8 °C 34797.9 hPa Calm     64 % 0 mm 0.0 W/m2 CLR
23:55 -12.2 °C -15.8 °C 34797.9 hPa Calm     64 % 0 mm 0.0 W/m2 CLR
Lo Temps de Massalio
Compliments of Weather Underground - 1.25 mb